Terminal Aerodrome Forecast
Issued by NWS

Home | Current Version | Previous Version | Text Only | Print | Product List | Glossary On
Versions: 1 2 3 4 5 6 7 8 9 10 11 12 13 14 15 16 17 18 19 20 21
411
FTUS46 KSEW 271131
TAFOLM
TAF
KOLM 271131Z 2712/2812 21005KT P6SM -SHRA SCT012 BKN035 OVC060
      TEMPO 2712/2716 SCT012 OVC028
     FM271800 22013KT P6SM -SHRA SCT020 BKN030 OVC050
     FM280300 20008KT P6SM SCT028 BKN035 OVC050
     FM280600 20005KT P6SM OVC028
     FM280900 20005KT 6SM -RA BR OVC022=

USA.gov is the U.S. government's official web portal to all federal, state and local government web resources and services.